Time;durP1;ratioP1;P1;durP2;ratioP2;P2;SDS_P1;SDS_P2;PMS_P1;PMS_P2;Temp;Humidity;BMP_temperature;BMP_pressure;BME280_temperature;BME280_humidity;BME280_pressure;Samples;Min_cycle;Max_cycle;Signal;HPM_P1;HPM_P2
2022/10/21 00:00:06;;;;;;;;;8.00;3.75;;;;;28.77;100.00;101394.66;5041693;28;51588;-45
2022/10/21 00:02:51;;;;;;;;;3.50;3.25;;;;;28.75;100.00;101397.47;5041543;28;51103;-48
2022/10/21 00:05:36;;;;;;;;;3.00;3.00;;;;;28.71;100.00;101384.06;5041695;28;51121;-46
2022/10/21 00:08:22;;;;;;;;;0.50;0.00;;;;;28.65;100.00;101373.56;5041140;28;51119;-47
2022/10/21 00:11:08;;;;;;;;;2.25;2.00;;;;;28.67;100.00;101377.09;5041398;28;51060;-51
2022/10/21 00:13:53;;;;;;;;;6.50;3.00;;;;;28.67;100.00;101360.66;5041370;28;51391;-48
2022/10/21 00:16:37;;;;;;;;;3.25;3.00;;;;;28.68;100.00;101362.41;5040481;28;51198;-48
2022/10/21 00:19:21;;;;;;;;;7.75;4.50;;;;;28.67;100.00;101361.50;5041626;28;51312;-51
2022/10/21 00:22:06;;;;;;;;;10.75;6.50;;;;;28.65;100.00;101346.19;5041060;28;51327;-48
2022/10/21 00:24:50;;;;;;;;;6.75;5.25;;;;;28.66;100.00;101357.03;5041047;28;51341;-52
2022/10/21 00:27:35;;;;;;;;;6.50;3.75;;;;;28.67;100.00;101349.69;5040801;28;51213;-51
2022/10/21 00:30:19;;;;;;;;;7.50;4.50;;;;;28.68;100.00;101351.47;5041347;28;51184;-53
2022/10/21 00:33:04;;;;;;;;;6.00;5.00;;;;;28.69;100.00;101348.59;5040686;28;51526;-50
2022/10/21 00:36:01;;;;;;;;;5.00;3.75;;;;;28.69;100.00;101329.44;5040817;28;51142;-48
2022/10/21 00:38:47;;;;;;;;;6.00;3.00;;;;;28.68;100.00;101324.94;5041099;28;51063;-47
2022/10/21 00:41:31;;;;;;;;;5.00;3.75;;;;;28.67;100.00;101319.59;5035130;28;51194;-49
2022/10/21 00:44:16;;;;;;;;;4.25;4.00;;;;;28.67;100.00;101325.06;5041096;28;51063;-49
2022/10/21 00:47:07;;;;;;;;;4.00;4.00;;;;;28.67;100.00;101330.53;5040356;28;51490;-50
2022/10/21 00:50:01;;;;;;;;;4.00;4.00;;;;;28.68;100.00;101314.00;5039833;28;51186;-48
2022/10/21 00:52:46;;;;;;;;;4.75;3.50;;;;;28.68;100.00;101308.50;5040624;28;51246;-50
2022/10/21 00:55:33;;;;;;;;;6.25;4.25;;;;;28.65;100.00;101302.38;5040945;28;51034;-54
2022/10/21 00:58:21;;;;;;;;;7.00;4.25;;;;;28.73;100.00;101320.03;5040109;28;51517;-48
2022/10/21 01:01:07;;;;;;;;;5.00;3.00;;;;;28.73;100.00;101308.22;5039296;28;51177;-50
2022/10/21 01:03:51;;;;;;;;;3.25;2.75;;;;;28.79;100.00;101315.09;5040529;28;51564;-51
2022/10/21 01:06:36;;;;;;;;;3.25;3.00;;;;;28.84;100.00;101310.16;5040110;28;51169;-52
2022/10/21 01:09:21;;;;;;;;;7.75;5.75;;;;;28.83;100.00;101298.34;5039260;28;51104;-50
2022/10/21 01:12:14;;;;;;;;;9.75;5.75;;;;;28.81;100.00;101305.78;5039085;28;51455;-49
2022/10/21 01:15:09;;;;;;;;;9.25;4.25;;;;;28.78;100.00;101302.41;5039016;28;51109;-49
2022/10/21 01:18:01;;;;;;;;;5.50;4.00;;;;;28.74;100.00;101286.19;5040049;28;51118;-52
2022/10/21 01:21:10;;;;;;;;;5.50;4.00;;;;;28.79;100.00;101293.19;5040401;28;51146;-51
2022/10/21 01:24:13;;;;;;;;;6.50;5.50;;;;;28.78;100.00;101292.34;5039931;28;51564;-53
2022/10/21 01:27:18;;;;;;;;;10.25;4.75;;;;;28.83;100.00;101283.78;5039110;28;51138;-49
2022/10/21 01:30:07;;;;;;;;;7.00;5.00;;;;;28.86;100.00;101287.19;5038872;28;51209;-50
2022/10/21 01:33:18;;;;;;;;;7.50;4.75;;;;;28.91;100.00;101281.38;5039480;28;51188;-50
2022/10/21 01:36:09;;;;;;;;;7.50;4.75;;;;;28.96;100.00;101281.88;5040116;28;51091;-49
2022/10/21 01:39:00;;;;;;;;;7.00;4.75;;;;;29.04;100.00;101275.84;5039361;28;51168;-52
2022/10/21 01:41:58;;;;;;;;;7.50;7.00;;;;;29.10;100.00;101258.09;5039523;28;51359;-48
2022/10/21 01:44:54;;;;;;;;;6.00;4.75;;;;;29.17;100.00;101257.53;5038523;28;51189;-51
2022/10/21 01:47:52;;;;;;;;;7.75;6.50;;;;;29.17;100.00;101260.25;5038938;28;51121;-46
2022/10/21 01:50:42;;;;;;;;;7.50;5.50;;;;;29.19;100.00;101254.66;5038331;28;51391;-51
2022/10/21 01:53:29;;;;;;;;;8.50;5.75;;;;;29.20;100.00;101257.31;5038544;28;51256;-52
2022/10/21 01:56:15;;;;;;;;;6.75;5.50;;;;;29.25;100.00;101250.59;5039699;28;51355;-51
2022/10/21 01:59:01;;;;;;;;;16.00;8.25;;;;;29.22;100.00;101236.13;5037946;28;51480;-49
2022/10/21 02:01:46;;;;;;;;;8.75;7.25;;;;;29.20;100.00;101232.63;5039736;28;51208;-48
2022/10/21 02:04:33;;;;;;;;;9.00;7.25;;;;;29.19;100.00;101239.09;5038273;28;51592;-48
2022/10/21 02:07:18;;;;;;;;;8.75;7.25;;;;;29.15;100.00;101221.13;5037936;28;51270;-49
2022/10/21 02:10:04;;;;;;;;;8.00;7.00;;;;;29.17;100.00;101210.94;5038000;28;51220;-49
2022/10/21 02:12:50;;;;;;;;;5.50;5.25;;;;;29.16;100.00;101203.72;5038610;28;51127;-49
2022/10/21 02:15:36;;;;;;;;;8.75;5.00;;;;;29.21;100.00;101200.63;5037843;28;51299;-47
2022/10/21 02:18:23;;;;;;;;;9.75;6.50;;;;;29.12;100.00;101188.47;5039116;28;51288;-48
2022/10/21 02:21:12;;;;;;;;;9.25;7.50;;;;;29.25;100.00;101212.22;5039176;28;51098;-49
2022/10/21 02:24:11;;;;;;;;;10.25;6.00;;;;;29.26;100.00;101219.44;5037783;28;51170;-49
2022/10/21 02:26:56;;;;;;;;;9.25;5.00;;;;;29.28;100.00;101226.56;5039171;28;51030;-49
2022/10/21 02:29:42;;;;;;;;;13.25;9.75;;;;;29.27;100.00;101229.44;5039032;28;51170;-48
2022/10/21 02:32:43;;;;;;;;;12.50;10.00;;;;;29.26;100.00;101223.06;5037766;28;51511;-48
2022/10/21 02:35:33;;;;;;;;;14.25;10.75;;;;;29.26;100.00;101222.19;5037703;28;51120;-52
2022/10/21 02:38:41;;;;;;;;;17.75;14.00;;;;;29.28;100.00;101212.84;5041330;28;51133;-50
2022/10/21 02:41:26;;;;;;;;;13.50;13.50;;;;;29.21;100.00;101201.47;5042903;28;51063;-52
2022/10/21 02:44:11;;;;;;;;;15.00;11.50;;;;;29.24;100.00;101211.34;5041978;28;51158;-49
2022/10/21 02:46:55;;;;;;;;;17.00;13.00;;;;;29.25;100.00;101218.59;5041824;28;51187;-48
2022/10/21 02:49:40;;;;;;;;;13.00;12.50;;;;;29.25;100.00;101228.66;5042719;28;51214;-49
2022/10/21 02:52:24;;;;;;;;;18.50;13.75;;;;;29.18;100.00;101223.66;5043305;28;51086;-49
2022/10/21 02:55:08;;;;;;;;;19.00;17.75;;;;;29.14;100.00;101205.69;5042517;28;51343;-53
2022/10/21 02:57:53;;;;;;;;;20.25;18.25;;;;;29.12;100.00;101199.44;5042897;28;51590;-52
2022/10/21 03:00:38;;;;;;;;;17.75;16.75;;;;;29.14;100.00;101207.56;5041595;28;51045;-53
2022/10/21 03:03:22;;;;;;;;;19.00;15.50;;;;;29.16;100.00;101205.56;5043116;28;51202;-48
2022/10/21 03:06:06;;;;;;;;;12.25;12.25;;;;;29.18;100.00;101196.25;5042260;28;51431;-52
2022/10/21 03:08:51;;;;;;;;;21.00;17.00;;;;;29.18;100.00;101196.25;5042624;28;51190;-50
2022/10/21 03:11:36;;;;;;;;;22.00;14.75;;;;;29.19;100.00;101213.56;5042811;28;51436;-52
2022/10/21 03:14:20;;;;;;;;;16.50;15.25;;;;;29.19;100.00;101211.72;5042329;28;51165;-49
2022/10/21 03:17:04;;;;;;;;;19.75;12.75;;;;;29.18;100.00;101198.09;5042076;28;51229;-48
2022/10/21 03:19:49;;;;;;;;;14.75;10.00;;;;;29.14;100.00;101189.25;5042496;28;51341;-50
2022/10/21 03:22:34;;;;;;;;;13.00;9.00;;;;;29.14;100.00;101191.13;5042561;28;51134;-50
2022/10/21 03:25:19;;;;;;;;;11.25;8.25;;;;;29.11;100.00;101194.94;5041905;28;51162;-50
2022/10/21 03:28:04;;;;;;;;;13.00;10.50;;;;;29.11;100.00;101197.69;5042311;28;51101;-48
2022/10/21 03:30:48;;;;;;;;;6.00;6.00;;;;;29.10;100.00;101198.69;5042260;28;51216;-50
2022/10/21 03:33:33;;;;;;;;;14.25;9.75;;;;;29.11;100.00;101194.94;5042105;28;51193;-51
2022/10/21 03:36:17;;;;;;;;;13.25;9.75;;;;;29.12;100.00;101195.84;5041991;28;51497;-48
2022/10/21 03:39:02;;;;;;;;;10.50;9.50;;;;;29.10;100.00;101203.28;5041820;28;51177;-53
2022/10/21 03:41:46;;;;;;;;;16.00;13.50;;;;;29.09;100.00;101194.22;5042253;28;51054;-47
2022/10/21 03:44:31;;;;;;;;;15.50;12.75;;;;;29.10;100.00;101185.00;5041618;28;51224;-48
2022/10/21 03:47:15;;;;;;;;;17.75;14.00;;;;;29.10;100.00;101203.28;5041538;28;51519;-49
2022/10/21 03:50:00;;;;;;;;;16.75;12.75;;;;;29.10;100.00;101214.25;5041003;28;51094;-49
2022/10/21 03:52:45;;;;;;;;;15.25;12.75;;;;;29.05;100.00;101200.91;5041815;28;51185;-48
2022/10/21 03:55:29;;;;;;;;;10.25;9.50;;;;;29.05;100.00;101192.69;5041451;28;51093;-48
2022/10/21 03:58:14;;;;;;;;;11.00;10.50;;;;;29.07;100.00;101190.69;5041743;28;51249;-48
2022/10/21 04:00:59;;;;;;;;;11.50;9.50;;;;;29.02;100.00;101187.41;5041722;28;51150;-49
2022/10/21 04:03:43;;;;;;;;;12.50;10.50;;;;;29.02;100.00;101190.16;5041146;28;51138;-50
2022/10/21 04:06:27;;;;;;;;;14.00;11.50;;;;;29.00;100.00;101195.75;5041632;28;51135;-48
2022/10/21 04:09:12;;;;;;;;;9.50;8.00;;;;;28.95;100.00;101197.09;5041324;28;51671;-51
2022/10/21 04:11:56;;;;;;;;;9.00;8.50;;;;;28.98;100.00;101205.09;5041243;28;51624;-50
2022/10/21 04:14:41;;;;;;;;;9.50;8.00;;;;;29.01;100.00;101208.47;5039877;28;51060;-49
2022/10/21 04:17:25;;;;;;;;;10.25;9.75;;;;;29.02;100.00;101199.28;5041610;28;51137;-49
2022/10/21 04:20:10;;;;;;;;;11.00;11.00;;;;;29.05;100.00;101209.13;5041104;28;51072;-52
2022/10/21 04:22:55;;;;;;;;;15.25;10.75;;;;;29.03;100.00;101203.75;5041187;28;51170;-49
2022/10/21 04:25:39;;;;;;;;;12.25;10.00;;;;;29.03;100.00;101203.75;5041441;28;51130;-49
2022/10/21 04:28:23;;;;;;;;;11.25;9.00;;;;;29.02;100.00;101201.13;5040780;28;51153;-51
2022/10/21 04:31:08;;;;;;;;;8.50;5.75;;;;;28.98;100.00;101200.47;5040380;28;51235;-51
2022/10/21 04:33:52;;;;;;;;;12.75;9.00;;;;;28.86;100.00;101205.00;5039943;28;51152;-50
2022/10/21 04:36:36;;;;;;;;;13.50;12.00;;;;;28.73;100.00;101202.28;5041128;28;51143;-52
2022/10/21 04:39:21;;;;;;;;;16.00;11.50;;;;;28.67;100.00;101221.00;5040475;28;51446;-51
2022/10/21 04:42:05;;;;;;;;;18.75;15.50;;;;;28.64;100.00;101219.34;5041045;28;51075;-52
2022/10/21 04:44:50;;;;;;;;;14.25;9.50;;;;;28.57;100.00;101218.06;5040790;28;51071;-51
2022/10/21 04:47:34;;;;;;;;;13.50;9.00;;;;;28.41;100.00;101223.75;5040569;28;51158;-52
2022/10/21 04:50:19;;;;;;;;;12.25;6.75;;;;;28.25;100.00;101234.94;5040660;28;51385;-52
2022/10/21 04:53:03;;;;;;;;;13.50;7.25;;;;;28.14;100.00;101233.81;5040611;28;51119;-53
2022/10/21 04:55:53;;;;;;;;;11.50;9.75;;;;;28.11;100.00;101231.28;5040684;28;51101;-51
2022/10/21 04:58:38;;;;;;;;;14.00;9.75;;;;;28.11;100.00;101230.44;5040344;28;51271;-47
2022/10/21 05:01:22;;;;;;;;;13.25;11.00;;;;;28.11;100.00;101224.97;5037098;28;51090;-49
2022/10/21 05:04:07;;;;;;;;;15.25;10.50;;;;;28.08;100.00;101227.91;5041021;28;51188;-49
2022/10/21 05:06:51;;;;;;;;;10.00;10.00;;;;;28.02;100.00;101231.03;5041868;28;51165;-49
2022/10/21 05:09:36;;;;;;;;;19.75;13.25;;;;;27.92;100.00;101226.22;5037194;28;51075;-48
2022/10/21 05:12:21;;;;;;;;;14.50;11.25;;;;;27.88;100.00;101238.34;5040356;28;51216;-52
2022/10/21 05:15:06;;;;;;;;;16.75;11.25;;;;;27.86;100.00;101239.44;5040198;28;51181;-48
2022/10/21 05:17:52;;;;;;;;;14.25;8.00;;;;;27.90;100.00;101252.78;5039877;28;51145;-51
2022/10/21 05:20:36;;;;;;;;;8.50;7.75;;;;;27.92;100.00;101253.56;5040088;28;51082;-48
2022/10/21 05:23:21;;;;;;;;;12.75;10.50;;;;;27.92;100.00;101255.41;5040196;28;51481;-50
2022/10/21 05:26:06;;;;;;;;;15.25;10.25;;;;;27.94;100.00;101268.00;5040276;28;51355;-50
2022/10/21 05:28:52;;;;;;;;;11.25;7.00;;;;;27.97;100.00;101283.34;5039707;28;51067;-49
2022/10/21 05:31:36;;;;;;;;;7.50;6.50;;;;;27.99;100.00;101279.50;5040222;28;51235;-44
2022/10/21 05:34:21;;;;;;;;;12.50;8.25;;;;;28.01;100.00;101284.84;5039788;28;51330;-50
2022/10/21 05:37:05;;;;;;;;;9.25;8.00;;;;;28.05;100.00;101280.03;5039876;28;51138;-49
2022/10/21 05:39:50;;;;;;;;;13.50;9.75;;;;;28.04;100.00;101270.97;5039579;28;51424;-49
2022/10/21 05:42:34;;;;;;;;;12.25;12.25;;;;;27.98;100.00;101258.59;5040304;28;51184;-48
2022/10/21 05:45:19;;;;;;;;;15.00;12.50;;;;;28.08;100.00;101277.13;5039499;28;51317;-52
2022/10/21 05:48:04;;;;;;;;;14.00;11.00;;;;;28.12;100.00;101279.56;5039453;28;51176;-48
2022/10/21 05:50:52;;;;;;;;;13.75;11.25;;;;;28.21;100.00;101277.16;5039716;28;51617;-51
2022/10/21 05:53:38;;;;;;;;;13.25;8.25;;;;;28.25;100.00;101265.03;5037818;28;51177;-53
2022/10/21 05:56:23;;;;;;;;;15.25;12.00;;;;;28.37;100.00;101282.44;5039770;28;51156;-50
2022/10/21 05:59:09;;;;;;;;;19.50;13.50;;;;;28.45;100.00;101283.66;5034561;28;51110;-49
2022/10/21 06:01:53;;;;;;;;;11.25;9.25;;;;;28.58;100.00;101286.38;5025548;28;51351;-46
2022/10/21 06:04:38;;;;;;;;;10.25;7.25;;;;;28.72;100.00;101285.44;5038991;28;51442;-51
2022/10/21 06:07:23;;;;;;;;;13.00;8.25;;;;;28.82;100.00;101291.13;5036407;28;51157;-48
2022/10/21 06:10:08;;;;;;;;;11.25;9.25;;;;;28.91;100.00;101289.56;5037698;28;51102;-45
2022/10/21 06:12:53;;;;;;;;;10.25;9.50;;;;;28.95;100.00;101277.38;5038490;28;51415;-42
2022/10/21 06:15:38;;;;;;;;;11.25;9.00;;;;;29.10;100.00;101275.41;5038635;28;51360;-43
2022/10/21 06:18:23;;;;;;;;;10.75;8.25;;;;;29.42;100.00;101279.50;5035958;28;51153;-42
2022/10/21 06:21:08;;;;;;;;;18.00;14.50;;;;;29.60;100.00;101278.09;5039357;28;51182;-43
2022/10/21 06:23:53;;;;;;;;;9.50;9.00;;;;;29.64;100.00;101285.13;5037795;28;51421;-44
2022/10/21 06:26:38;;;;;;;;;9.50;7.25;;;;;29.53;100.00;101304.25;5035488;28;51152;-44
2022/10/21 06:29:23;;;;;;;;;64.25;50.25;;;;;29.52;100.00;101307.97;5038626;28;51090;-44
2022/10/21 06:32:07;;;;;;;;;18.25;16.25;;;;;29.48;100.00;101315.56;5034354;28;51416;-42
2022/10/21 06:34:53;;;;;;;;;10.50;8.00;;;;;29.56;100.00;101317.72;5037516;28;51162;-42
2022/10/21 06:37:38;;;;;;;;;11.00;7.25;;;;;29.78;100.00;101314.22;5037490;28;51257;-43
2022/10/21 06:40:23;;;;;;;;;57.25;43.50;;;;;30.23;100.00;101301.72;5033584;28;51723;-44
2022/10/21 06:43:08;;;;;;;;;48.00;38.00;;;;;30.68;100.00;101310.09;5048747;28;51346;-42
2022/10/21 06:45:57;;;;;;;;;58.75;47.00;;;;;31.17;100.00;101318.09;5036399;28;51015;-43
2022/10/21 06:48:42;;;;;;;;;15.50;12.75;;;;;31.59;100.00;101329.28;5035368;28;51099;-43
2022/10/21 06:51:28;;;;;;;;;10.00;9.25;;;;;32.21;100.00;101342.47;5034362;28;51120;-43
2022/10/21 06:54:13;;;;;;;;;11.25;9.00;;;;;32.98;100.00;101346.78;5038893;28;51203;-41
2022/10/21 06:56:57;;;;;;;;;15.50;11.25;;;;;33.39;100.00;101338.56;5036677;28;51121;-44
2022/10/21 06:59:42;;;;;;;;;9.50;7.00;;;;;33.71;100.00;101345.75;5035810;28;51060;-44
2022/10/21 07:02:27;;;;;;;;;16.50;10.75;;;;;34.09;100.00;101343.19;5035811;28;51127;-44
2022/10/21 07:05:11;;;;;;;;;4.25;3.75;;;;;34.19;100.00;101332.13;5036525;28;51552;-42
2022/10/21 07:07:56;;;;;;;;;9.50;7.75;;;;;34.29;100.00;101333.88;5034508;28;51119;-42
2022/10/21 07:10:44;;;;;;;;;7.50;5.75;;;;;34.55;100.00;101324.97;5034523;28;51218;-45
2022/10/21 07:13:29;;;;;;;;;9.50;7.50;;;;;34.43;100.00;101328.94;5032386;28;51453;-42
2022/10/21 07:16:18;;;;;;;;;9.75;6.75;;;;;34.35;100.00;101340.69;5037635;28;51054;-46
2022/10/21 07:19:04;;;;;;;;;7.75;5.50;;;;;34.41;100.00;101345.66;5033029;28;51434;-42
2022/10/21 07:21:48;;;;;;;;;10.50;6.75;;;;;34.03;100.00;101354.78;5032408;28;51078;-43
2022/10/21 07:24:33;;;;;;;;;8.00;5.50;;;;;33.91;100.00;101351.31;5039030;28;51529;-44
2022/10/21 07:27:17;;;;;;;;;7.75;6.25;;;;;33.75;100.00;101357.34;5037466;28;51272;-43
2022/10/21 07:30:02;;;;;;;;;9.00;6.75;;;;;33.46;100.00;101360.94;5040358;28;51349;-43
2022/10/21 07:32:47;;;;;;;;;8.25;6.50;;;;;33.38;100.00;101372.66;5032364;28;51336;-43
2022/10/21 07:35:31;;;;;;;;;9.50;6.25;;;;;33.47;100.00;101374.56;5032528;28;52118;-42
2022/10/21 07:38:16;;;;;;;;;9.50;8.50;;;;;33.78;100.00;101368.97;5040103;28;51158;-44
2022/10/21 07:41:01;;;;;;;;;7.75;5.50;;;;;34.17;100.00;101367.31;5036186;28;51090;-44
2022/10/21 07:43:46;;;;;;;;;6.00;4.75;;;;;34.56;100.00;101361.78;5040595;28;51200;-41
2022/10/21 07:46:31;;;;;;;;;4.50;4.25;;;;;34.32;100.00;101299.56;5038331;28;51248;-42
2022/10/21 07:49:16;;;;;;;;;12.75;5.25;;;;;34.82;100.00;101370.31;5038880;28;51140;-44
2022/10/21 07:52:01;;;;;;;;;7.25;4.00;;;;;35.22;100.00;101376.59;5041726;28;51122;-41
2022/10/21 07:54:46;;;;;;;;;6.00;4.00;;;;;35.72;100.00;101368.91;5028257;28;51081;-42
2022/10/21 07:57:31;;;;;;;;;8.25;4.50;;;;;36.09;100.00;101373.47;5040740;28;51107;-41
2022/10/21 08:00:16;;;;;;;;;6.25;5.25;;;;;36.06;100.00;101379.34;5041995;28;51017;-42
2022/10/21 08:03:00;;;;;;;;;11.25;6.75;;;;;35.92;100.00;101384.41;5039026;28;51155;-43
2022/10/21 08:05:45;;;;;;;;;8.50;7.75;;;;;35.93;100.00;101388.03;5039847;28;51016;-43
2022/10/21 08:08:31;;;;;;;;;9.50;8.00;;;;;35.91;100.00;101381.75;5039957;28;51516;-44
2022/10/21 08:11:29;;;;;;;;;8.50;5.25;;;;;35.79;100.00;101383.88;5020687;28;51158;-43
2022/10/21 08:14:23;;;;;;;;;10.50;6.00;;;;;35.99;100.00;101393.81;5058547;27;51858;-43
2022/10/21 08:17:07;;;;;;;;;5.50;4.00;;;;;36.30;100.00;101389.78;5037603;28;51197;-44
2022/10/21 08:19:52;;;;;;;;;6.75;4.50;;;;;36.37;100.00;101401.09;5038462;28;51257;-44
2022/10/21 08:22:37;;;;;;;;;8.25;6.00;;;;;36.47;100.00;101399.13;5032103;28;51380;-43
2022/10/21 08:25:21;;;;;;;;;6.00;5.50;;;;;36.41;100.00;101392.31;5038482;28;51272;-43
2022/10/21 08:28:06;;;;;;;;;6.50;5.25;;;;;36.06;100.00;101395.97;5030951;28;51474;-44
2022/10/21 08:30:52;;;;;;;;;7.00;5.25;;;;;35.60;100.00;101396.81;5034379;28;51191;-43
2022/10/21 08:33:37;;;;;;;;;4.50;4.00;;;;;35.36;100.00;101398.22;5035246;28;51145;-43
2022/10/21 08:36:24;;;;;;;;;5.75;5.00;;;;;35.64;100.00;101405.66;5033960;28;50997;-42
2022/10/21 08:39:09;;;;;;;;;4.75;3.00;;;;;36.13;100.00;101402.59;5039367;28;51327;-42
2022/10/21 08:42:07;;;;;;;;;10.75;5.75;;;;;36.59;100.00;101406.16;5038692;28;51195;-43
2022/10/21 08:44:56;;;;;;;;;6.50;5.75;;;;;36.89;100.00;101412.28;5030212;28;51324;-42
2022/10/21 08:47:51;;;;;;;;;4.00;4.00;;;;;36.85;100.00;101415.53;5029058;28;51146;-45
2022/10/21 08:50:43;;;;;;;;;9.00;6.00;;;;;36.95;100.00;101415.44;5038234;28;51071;-42
2022/10/21 08:53:39;;;;;;;;;6.75;5.00;;;;;37.27;100.00;101402.78;5039846;28;51968;-42
2022/10/21 08:56:23;;;;;;;;;5.25;4.25;;;;;37.53;100.00;101408.31;5038113;28;51238;-43
2022/10/21 08:59:21;;;;;;;;;9.00;5.75;;;;;37.53;100.00;101416.66;5039003;28;51218;-41
2022/10/21 09:02:11;;;;;;;;;6.00;4.25;;;;;37.29;100.00;101418.28;5036888;28;51157;-42
2022/10/21 09:05:12;;;;;;;;;8.25;4.75;;;;;37.01;100.00;101414.81;5039885;28;51128;-43
2022/10/21 09:08:22;;;;;;;;;9.00;4.75;;;;;36.76;100.00;101411.81;5038480;28;51190;-41
2022/10/21 09:11:19;;;;;;;;;5.00;2.00;;;;;36.37;100.00;101401.97;5032241;28;51341;-41
2022/10/21 09:14:25;;;;;;;;;5.75;4.25;;;;;36.00;100.00;101411.31;5031214;28;51093;-40
2022/10/21 09:17:34;;;;;;;;;8.00;4.75;;;;;36.08;100.00;101402.22;5027411;28;51325;-40
2022/10/21 09:20:43;;;;;;;;;7.75;5.50;;;;;36.35;100.00;101400.38;5035360;28;51166;-42
2022/10/21 09:23:37;;;;;;;;;5.50;3.75;;;;;36.51;100.00;101402.47;5033304;28;51560;-41
2022/10/21 09:26:40;;;;;;;;;5.25;5.00;;;;;36.63;100.00;101397.50;5028439;28;51199;-40
2022/10/21 09:29:30;;;;;;;;;7.50;7.25;;;;;36.86;100.00;101407.03;5029657;28;51271;-41
2022/10/21 09:32:20;;;;;;;;;5.25;4.50;;;;;37.00;100.00;101394.50;5037349;28;51557;-42
2022/10/21 09:35:16;;;;;;;;;5.75;4.50;;;;;37.06;100.00;101399.41;5029107;28;51281;-43
2022/10/21 09:38:57;;;;;;;;;7.25;4.25;;;;;37.00;100.00;101399.19;5025138;28;51328;-43
2022/10/21 09:41:47;;;;;;;;;5.25;4.50;;;;;37.08;100.00;101399.25;5007884;28;51281;-43
2022/10/21 09:44:32;;;;;;;;;8.75;6.50;;;;;37.13;100.00;101393.19;5016411;28;51215;-42
2022/10/21 09:47:24;;;;;;;;;8.25;3.50;;;;;36.88;100.00;101401.34;5024712;28;51180;-41
2022/10/21 09:50:14;;;;;;;;;4.75;4.75;;;;;36.54;100.00;101391.06;5034803;28;51392;-42
2022/10/21 09:53:39;;;;;;;;;6.25;5.25;;;;;36.24;100.00;101391.28;5025096;28;51067;-42
2022/10/21 09:56:28;;;;;;;;;6.00;4.25;;;;;35.98;100.00;101394.84;5038566;28;51157;-43
2022/10/21 09:59:16;;;;;;;;;8.00;6.25;;;;;35.82;100.00;101387.19;5037658;28;51204;-43
2022/10/21 10:02:13;;;;;;;;;6.00;4.75;;;;;35.82;100.00;101380.78;5039127;28;51026;-42
2022/10/21 10:04:58;;;;;;;;;3.25;3.25;;;;;35.74;100.00;101378.81;5038633;28;51406;-41
2022/10/21 10:07:43;;;;;;;;;8.25;4.75;;;;;35.55;100.00;101384.47;5034995;28;52043;-43
2022/10/21 10:10:32;;;;;;;;;10.25;4.25;;;;;35.24;100.00;101354.31;5031604;28;51142;-43
2022/10/21 10:13:19;;;;;;;;;6.25;4.00;;;;;35.45;100.00;101379.84;5038503;28;51199;-42
2022/10/21 10:16:26;;;;;;;;;4.75;3.25;;;;;35.43;100.00;101370.84;5037843;28;51162;-43
2022/10/21 10:19:23;;;;;;;;;7.00;3.25;;;;;35.34;100.00;101364.31;5034920;28;51234;-42
2022/10/21 10:22:15;;;;;;;;;5.00;2.75;;;;;35.48;100.00;101364.84;5036253;28;51081;-44
2022/10/21 10:25:20;;;;;;;;;7.25;5.50;;;;;35.71;100.00;101359.75;5033567;28;51460;-42
2022/10/21 10:28:08;;;;;;;;;7.00;6.25;;;;;35.90;100.00;101355.09;5036575;28;51107;-43
2022/10/21 10:30:56;;;;;;;;;3.00;3.00;;;;;36.01;100.00;101362.31;5036275;28;51414;-43
2022/10/21 10:33:52;;;;;;;;;8.50;4.00;;;;;36.02;100.00;101352.97;5036376;28;51260;-42
2022/10/21 10:36:39;;;;;;;;;4.50;3.50;;;;;36.18;100.00;101353.16;5033003;28;51206;-43
2022/10/21 10:39:29;;;;;;;;;6.75;5.25;;;;;36.15;100.00;101342.38;5036568;28;51000;-44
2022/10/21 10:42:42;;;;;;;;;4.25;3.00;;;;;36.21;100.00;101340.88;5038027;28;51392;-42
2022/10/21 10:45:27;;;;;;;;;9.00;5.50;;;;;36.26;100.00;101339.38;5036273;28;51262;-46
2022/10/21 10:48:20;;;;;;;;;10.50;4.00;;;;;36.31;100.00;101333.34;5037317;28;51125;-42
2022/10/21 10:51:31;;;;;;;;;9.00;3.75;;;;;36.43;100.00;101339.50;5029582;28;51535;-43
2022/10/21 10:54:27;;;;;;;;;8.75;6.00;;;;;36.01;100.00;101329.97;5038236;28;51091;-43
2022/10/21 10:57:12;;;;;;;;;6.50;3.75;;;;;35.91;100.00;101332.78;5031654;28;51594;-43
2022/10/21 11:00:05;;;;;;;;;8.00;4.50;;;;;35.78;100.00;101324.00;5034317;28;51232;-42
2022/10/21 11:03:12;;;;;;;;;4.50;3.00;;;;;35.77;100.00;101334.22;5039560;28;51068;-42
2022/10/21 11:06:08;;;;;;;;;4.50;4.00;;;;;35.89;100.00;101321.00;5039252;28;51414;-42
2022/10/21 11:08:55;;;;;;;;;8.75;5.50;;;;;35.96;100.00;101324.03;5039173;28;51458;-41
2022/10/21 11:11:44;;;;;;;;;4.00;3.00;;;;;36.05;100.00;101320.31;5039828;28;51164;-43
2022/10/21 11:14:28;;;;;;;;;4.50;4.50;;;;;36.03;100.00;101321.50;5042054;28;51243;-42
2022/10/21 11:17:16;;;;;;;;;8.00;5.75;;;;;36.14;100.00;101315.72;5041651;28;51248;-43
2022/10/21 11:20:15;;;;;;;;;2.50;2.25;;;;;36.05;100.00;101313.91;5034788;28;51193;-42
2022/10/21 11:23:39;;;;;;;;;6.75;5.25;;;;;35.96;100.00;101311.06;5042277;28;51039;-43
2022/10/21 11:26:48;;;;;;;;;4.00;3.75;;;;;36.06;100.00;101310.09;5034526;28;51122;-45
2022/10/21 11:29:42;;;;;;;;;5.25;3.75;;;;;35.81;100.00;101302.41;5041749;28;51099;-42
2022/10/21 11:32:30;;;;;;;;;8.25;5.00;;;;;35.79;100.00;101304.47;5029025;28;51555;-44
2022/10/21 11:35:19;;;;;;;;;8.00;6.50;;;;;35.61;100.00;101290.63;5033302;28;51389;-42
2022/10/21 11:38:06;;;;;;;;;6.25;6.00;;;;;35.17;100.00;101283.03;5024278;28;51075;-41
2022/10/21 11:41:22;;;;;;;;;9.25;6.50;;;;;34.96;100.00;101282.41;5041906;28;51160;-43
2022/10/21 11:44:19;;;;;;;;;4.75;3.50;;;;;35.02;100.00;101277.13;5036847;28;51185;-41
2022/10/21 11:47:23;;;;;;;;;4.25;2.75;;;;;35.06;100.00;101269.41;5040135;28;51256;-41
2022/10/21 11:50:40;;;;;;;;;1.75;1.75;;;;;35.14;100.00;101263.97;5033128;28;51276;-42
2022/10/21 11:53:43;;;;;;;;;4.50;4.50;;;;;35.19;100.00;101261.59;5037754;28;51254;-41
2022/10/21 11:56:49;;;;;;;;;5.00;5.00;;;;;35.09;100.00;101254.38;5034351;28;51204;-42
2022/10/21 12:00:15;;;;;;;;;5.50;5.50;;;;;35.22;100.00;101246.59;5039736;28;51202;-41
2022/10/21 12:03:31;;;;;;;;;5.00;5.00;;;;;35.32;100.00;101241.88;5038576;28;51298;-41
2022/10/21 12:06:21;;;;;;;;;4.25;4.00;;;;;35.29;100.00;101231.13;5041148;28;51150;-40
2022/10/21 12:09:26;;;;;;;;;3.00;3.00;;;;;35.30;100.00;101229.19;5040943;28;51148;-40
2022/10/21 12:12:14;;;;;;;;;5.50;4.00;;;;;34.96;100.00;101218.81;5037409;28;51189;-41
2022/10/21 12:15:03;;;;;;;;;2.75;2.25;;;;;34.96;100.00;101218.81;5039334;28;51100;-43
2022/10/21 12:17:49;;;;;;;;;6.00;4.00;;;;;34.75;100.00;101219.91;5036799;28;51509;-43
2022/10/21 12:20:34;;;;;;;;;2.75;2.75;;;;;34.70;100.00;101220.38;5039239;28;51110;-43
2022/10/21 12:23:21;;;;;;;;;3.00;3.00;;;;;34.69;100.00;101207.56;5033756;28;51201;-42
2022/10/21 12:26:31;;;;;;;;;5.75;4.00;;;;;34.65;100.00;101203.38;5040105;28;51185;-44
2022/10/21 12:29:22;;;;;;;;;4.25;3.00;;;;;34.75;100.00;101195.91;5039619;28;51504;-43
2022/10/21 12:32:30;;;;;;;;;6.25;3.75;;;;;34.91;100.00;101199.94;5037728;28;51083;-42
2022/10/21 12:35:25;;;;;;;;;5.00;3.50;;;;;34.95;100.00;101195.81;5031006;28;51134;-46
2022/10/21 12:38:25;;;;;;;;;2.75;2.75;;;;;34.89;100.00;101190.88;5033309;28;51127;-43
2022/10/21 12:41:39;;;;;;;;;4.50;3.75;;;;;34.58;100.00;101189.28;5037499;28;51115;-47
2022/10/21 12:44:26;;;;;;;;;4.50;4.00;;;;;34.43;100.00;101188.06;5031272;28;51537;-49
2022/10/21 12:47:32;;;;;;;;;5.75;4.25;;;;;34.29;100.00;101176.44;5038042;28;51078;-45
2022/10/21 12:50:28;;;;;;;;;6.25;4.75;;;;;34.28;100.00;101173.84;5038997;28;51096;-48
2022/10/21 12:53:36;;;;;;;;;6.00;5.00;;;;;34.12;100.00;101169.81;5033893;28;51293;-47